Time,TemperatureF,DewpointF,PressureIn,WindDirection,WindDirectionDegrees,WindSpeedMPH,WindSpeedGustMPH,Humidity,HourlyPrecipIn,Conditions,Clouds,dailyrainin,SoftwareType,DateUTC
2013-01-24 00:02:00,22.0,16.0,-100.00,SE,133,3.0,5.0,75,-99.99,,,-99.99,,2013-01-24 07:02:00,
2013-01-24 00:12:00,23.0,17.0,-100.00,NE,52,0.0,2.0,76,-99.99,,,-99.99,,2013-01-24 07:12:00,
2013-01-24 00:22:00,22.0,15.0,-100.00,ESE,107,0.0,4.0,75,-99.99,,,-99.99,,2013-01-24 07:22:00,
2013-01-24 00:32:00,21.0,14.0,-100.00,ESE,111,1.0,6.0,75,-99.99,,,-99.99,,2013-01-24 07:32:00,
2013-01-24 04:33:00,27.0,20.0,-100.00,NNE,16,2.0,7.0,74,-99.99,,,-99.99,,2013-01-24 11:33:00,
2013-01-24 04:43:00,30.0,22.0,-100.00,North,0,0.0,4.0,71,-99.99,,,-99.99,,2013-01-24 11:43:00,
2013-01-24 04:52:00,30.0,22.0,-100.00,North,0,0.0,4.0,71,-99.99,,,-99.99,,2013-01-24 11:52:00,
2013-01-24 05:03:00,32.0,21.0,-100.00,NE,43,0.0,4.0,64,-99.99,,,-99.99,,2013-01-24 12:03:00,
2013-01-24 05:12:00,30.0,22.0,-100.00,SSW,212,4.0,6.0,70,-99.99,,,-99.99,,2013-01-24 12:12:00,
2013-01-24 05:22:00,30.0,22.0,-100.00,SSW,212,4.0,6.0,70,-99.99,,,-99.99,,2013-01-24 12:22:00,
2013-01-24 05:32:00,32.0,22.0,-100.00,WSW,245,5.0,9.0,66,-99.99,,,-99.99,,2013-01-24 12:32:00,
2013-01-24 05:42:00,32.0,22.0,-100.00,South,175,3.0,10.0,66,-99.99,,,-99.99,,2013-01-24 12:42:00,
2013-01-24 05:52:00,32.0,22.0,-100.00,South,175,3.0,10.0,66,-99.99,,,-99.99,,2013-01-24 12:52:00,
2013-01-24 06:02:00,33.0,22.0,-100.00,SE,146,2.0,5.0,63,-99.99,,,-99.99,,2013-01-24 13:02:00,
2013-01-24 06:12:00,33.0,23.0,-100.00,NNE,13,2.0,6.0,65,-99.99,,,-99.99,,2013-01-24 13:12:00,
2013-01-24 06:22:00,33.0,23.0,-100.00,NNE,13,2.0,6.0,65,-99.99,,,-99.99,,2013-01-24 13:22:00,
2013-01-24 06:32:00,33.0,23.0,-100.00,NNE,13,2.0,6.0,65,-99.99,,,-99.99,,2013-01-24 13:32:00,
2013-01-24 06:42:00,33.0,23.0,-100.00,ENE,77,2.0,2.0,66,-99.99,,,-99.99,,2013-01-24 13:42:00,
2013-01-24 06:52:00,33.0,23.0,-100.00,ENE,77,2.0,2.0,66,-99.99,,,-99.99,,2013-01-24 13:52:00,
2013-01-24 07:02:00,33.0,24.0,-100.00,West,270,1.0,4.0,69,-99.99,,,-99.99,,2013-01-24 14:02:00,
2013-01-24 07:12:00,36.0,27.0,-100.00,West,263,5.0,6.0,69,-99.99,,,-99.99,,2013-01-24 14:12:00,
2013-01-24 07:22:00,36.0,27.0,-100.00,West,263,5.0,6.0,69,-99.99,,,-99.99,,2013-01-24 14:22:00,
2013-01-24 07:32:00,38.0,29.0,-100.00,WNW,289,14.0,15.0,69,-99.99,,,-99.99,,2013-01-24 14:32:00,
2013-01-24 07:43:00,38.0,29.0,-100.00,WNW,289,14.0,15.0,69,-99.99,,,-99.99,,2013-01-24 14:43:00,
2013-01-24 07:53:00,37.0,29.0,-100.00,WNW,299,10.0,17.0,72,-99.99,,,-99.99,,2013-01-24 14:53:00,
2013-01-24 08:02:00,35.0,29.0,-100.00,West,269,6.0,12.0,77,-99.99,,,-99.99,,2013-01-24 15:02:00,
2013-01-24 08:12:00,35.0,29.0,-100.00,West,269,6.0,12.0,77,-99.99,,,-99.99,,2013-01-24 15:12:00,
2013-01-24 08:22:00,34.0,29.0,-100.00,WSW,241,6.0,8.0,79,-99.99,,,-99.99,,2013-01-24 15:22:00,
2013-01-24 08:33:00,34.0,29.0,-100.00,WSW,241,6.0,8.0,79,-99.99,,,-99.99,,2013-01-24 15:33:00,
2013-01-24 08:42:00,33.0,29.0,-100.00,WSW,246,4.0,5.0,84,-99.99,,,-99.99,,2013-01-24 15:42:00,
2013-01-24 08:52:00,33.0,30.0,-100.00,West,260,3.0,4.0,86,-99.99,,,-99.99,,2013-01-24 15:52:00,
2013-01-24 09:03:00,33.0,30.0,-100.00,WSW,239,2.0,4.0,87,-99.99,,,-99.99,,2013-01-24 16:03:00,
2013-01-24 09:12:00,33.0,30.0,-100.00,West,267,1.0,2.0,89,-99.99,,,-99.99,,2013-01-24 16:12:00,
2013-01-24 09:22:00,33.0,30.0,-100.00,West,267,1.0,2.0,89,-99.99,,,-99.99,,2013-01-24 16:22:00,
2013-01-24 09:33:00,33.0,31.0,-100.00,North,0,0.0,2.0,89,-99.99,,,-99.99,,2013-01-24 16:33:00,
2013-01-24 09:42:00,33.0,31.0,-100.00,North,0,0.0,2.0,89,-99.99,,,-99.99,,2013-01-24 16:42:00,
2013-01-24 10:01:00,33.0,31.0,-100.00,North,0,0.0,0.0,90,-99.99,,,-99.99,,2013-01-24 17:01:00,
2013-01-24 10:11:00,33.0,31.0,-100.00,ESE,106,1.0,3.0,91,-99.99,,,-99.99,,2013-01-24 17:11:00,
2013-01-24 10:21:00,33.0,31.0,-100.00,ESE,106,1.0,3.0,91,-99.99,,,-99.99,,2013-01-24 17:21:00,
2013-01-24 10:32:00,33.0,31.0,-100.00,ESE,106,1.0,3.0,91,-99.99,,,-99.99,,2013-01-24 17:32:00,
2013-01-24 10:42:00,33.0,31.0,-100.00,SE,125,1.0,3.0,91,-99.99,,,-99.99,,2013-01-24 17:42:00,
2013-01-24 10:51:00,34.0,32.0,-100.00,North,0,0.0,2.0,91,-99.99,,,-99.99,,2013-01-24 17:51:00,
2013-01-24 11:02:00,34.0,32.0,-100.00,South,177,0.0,3.0,91,-99.99,,,-99.99,,2013-01-24 18:02:00,
2013-01-24 11:11:00,34.0,32.0,-100.00,SE,145,1.0,2.0,91,-99.99,,,-99.99,,2013-01-24 18:11:00,
2013-01-24 11:22:00,34.0,32.0,-100.00,SE,145,1.0,2.0,91,-99.99,,,-99.99,,2013-01-24 18:22:00,
2013-01-24 11:32:00,35.0,32.0,-100.00,South,175,3.0,4.0,90,-99.99,,,-99.99,,2013-01-24 18:32:00,
2013-01-24 11:42:00,35.0,32.0,-100.00,South,175,3.0,4.0,90,-99.99,,,-99.99,,2013-01-24 18:42:00,
2013-01-24 11:52:00,34.0,32.0,-100.00,East,99,2.0,4.0,90,-99.99,,,-99.99,,2013-01-24 18:52:00,
2013-01-24 12:01:00,35.0,32.0,-100.00,ESE,120,3.0,4.0,90,-99.99,,,-99.99,,2013-01-24 19:01:00,
2013-01-24 12:12:00,35.0,32.0,-100.00,ESE,120,3.0,4.0,90,-99.99,,,-99.99,,2013-01-24 19:12:00,
2013-01-24 12:21:00,35.0,32.0,-100.00,ESE,120,3.0,4.0,90,-99.99,,,-99.99,,2013-01-24 19:21:00,
2013-01-24 12:32:00,35.0,33.0,-100.00,East,99,0.0,3.0,90,-99.99,,,-99.99,,2013-01-24 19:32:00,
2013-01-24 12:42:00,36.0,33.0,-100.00,East,101,3.0,4.0,90,-99.99,,,-99.99,,2013-01-24 19:42:00,
2013-01-24 12:51:00,36.0,33.0,-100.00,East,101,3.0,4.0,90,-99.99,,,-99.99,,2013-01-24 19:51:00,
2013-01-24 13:01:00,36.0,33.0,-100.00,East,101,3.0,4.0,90,-99.99,,,-99.99,,2013-01-24 20:01:00,
2013-01-24 13:11:00,37.0,35.0,-100.00,SE,130,1.0,3.0,90,-99.99,,,-99.99,,2013-01-24 20:11:00,
2013-01-24 13:21:00,37.0,35.0,-100.00,SE,130,1.0,3.0,90,-99.99,,,-99.99,,2013-01-24 20:21:00,
2013-01-24 13:32:00,38.0,35.0,-100.00,SSE,156,2.0,3.0,88,-99.99,,,-99.99,,2013-01-24 20:32:00,
2013-01-24 13:42:00,38.0,35.0,-100.00,SSE,156,2.0,3.0,88,-99.99,,,-99.99,,2013-01-24 20:42:00,
2013-01-24 13:52:00,38.0,35.0,-100.00,ESE,107,0.0,3.0,87,-99.99,,,-99.99,,2013-01-24 20:52:00,
2013-01-24 14:02:00,38.0,35.0,-100.00,ESE,107,0.0,3.0,87,-99.99,,,-99.99,,2013-01-24 21:02:00,
2013-01-24 14:11:00,38.0,34.0,-100.00,South,181,0.0,3.0,87,-99.99,,,-99.99,,2013-01-24 21:11:00,
2013-01-24 14:22:00,37.0,34.0,-100.00,West,267,3.0,4.0,87,-99.99,,,-99.99,,2013-01-24 21:22:00,
2013-01-24 14:32:00,37.0,34.0,-100.00,WSW,256,2.0,4.0,88,-99.99,,,-99.99,,2013-01-24 21:32:00,
2013-01-24 14:42:00,37.0,34.0,-100.00,SSW,195,1.0,3.0,88,-99.99,,,-99.99,,2013-01-24 21:42:00,
2013-01-24 14:52:00,37.0,34.0,-100.00,SSW,195,1.0,3.0,88,-99.99,,,-99.99,,2013-01-24 21:52:00,
2013-01-24 15:02:00,37.0,34.0,-100.00,East,80,0.0,3.0,88,-99.99,,,-99.99,,2013-01-24 22:02:00,
2013-01-24 15:12:00,37.0,34.0,-100.00,East,99,1.0,3.0,88,-99.99,,,-99.99,,2013-01-24 22:12:00,
2013-01-24 15:21:00,37.0,34.0,-100.00,East,99,1.0,3.0,88,-99.99,,,-99.99,,2013-01-24 22:21:00,
2013-01-24 15:32:00,37.0,34.0,-100.00,SSW,212,0.0,2.0,87,-99.99,,,-99.99,,2013-01-24 22:32:00,
2013-01-24 15:41:00,37.0,34.0,-100.00,West,272,4.0,6.0,87,-99.99,,,-99.99,,2013-01-24 22:41:00,
2013-01-24 15:52:00,37.0,34.0,-100.00,West,272,4.0,6.0,87,-99.99,,,-99.99,,2013-01-24 22:52:00,
2013-01-24 16:02:00,37.0,33.0,-100.00,WNW,287,5.0,7.0,88,-99.99,,,-99.99,,2013-01-24 23:02:00,
2013-01-24 16:11:00,36.0,33.0,-100.00,West,266,4.0,5.0,88,-99.99,,,-99.99,,2013-01-24 23:11:00,
2013-01-24 16:21:00,36.0,33.0,-100.00,West,266,4.0,5.0,88,-99.99,,,-99.99,,2013-01-24 23:21:00,
2013-01-24 16:32:00,36.0,33.0,-100.00,West,281,6.0,6.0,88,-99.99,,,-99.99,,2013-01-24 23:32:00,
2013-01-24 16:42:00,36.0,33.0,-100.00,West,269,6.0,7.0,88,-99.99,,,-99.99,,2013-01-24 23:42:00,
2013-01-24 16:52:00,36.0,33.0,-100.00,West,269,6.0,7.0,88,-99.99,,,-99.99,,2013-01-24 23:52:00,
2013-01-24 17:01:00,36.0,33.0,-100.00,WNW,287,6.0,6.0,88,-99.99,,,-99.99,,2013-01-25 00:01:00,
2013-01-24 17:12:00,36.0,33.0,-100.00,West,280,5.0,6.0,89,-99.99,,,-99.99,,2013-01-25 00:12:00,
2013-01-24 17:21:00,36.0,33.0,-100.00,West,280,5.0,6.0,89,-99.99,,,-99.99,,2013-01-25 00:21:00,
2013-01-24 17:32:00,36.0,33.0,-100.00,West,269,4.0,5.0,89,-99.99,,,-99.99,,2013-01-25 00:32:00,
2013-01-24 17:41:00,36.0,33.0,-100.00,WNW,295,5.0,5.0,89,-99.99,,,-99.99,,2013-01-25 00:41:00,
2013-01-24 17:51:00,36.0,33.0,-100.00,WNW,295,5.0,5.0,89,-99.99,,,-99.99,,2013-01-25 00:51:00,
2013-01-24 18:01:00,36.0,33.0,-100.00,NW,315,2.0,3.0,89,-99.99,,,-99.99,,2013-01-25 01:01:00,
2013-01-24 18:11:00,35.0,32.0,-100.00,WNW,294,3.0,3.0,89,-99.99,,,-99.99,,2013-01-25 01:11:00,
2013-01-24 18:21:00,35.0,32.0,-100.00,WNW,294,3.0,3.0,89,-99.99,,,-99.99,,2013-01-25 01:21:00,
2013-01-24 18:31:00,35.0,32.0,-100.00,West,280,2.0,3.0,89,-99.99,,,-99.99,,2013-01-25 01:31:00,
2013-01-24 18:41:00,35.0,33.0,-100.00,NE,49,0.0,1.0,89,-99.99,,,-99.99,,2013-01-25 01:41:00,
2013-01-24 18:51:00,35.0,33.0,-100.00,NE,49,0.0,1.0,89,-99.99,,,-99.99,,2013-01-25 01:51:00,
2013-01-24 19:02:00,35.0,33.0,-100.00,SW,234,3.0,3.0,89,-99.99,,,-99.99,,2013-01-25 02:02:00,
2013-01-24 19:11:00,35.0,32.0,-100.00,SSW,211,0.0,1.0,89,-99.99,,,-99.99,,2013-01-25 02:11:00,
2013-01-24 19:21:00,35.0,32.0,-100.00,SSW,211,0.0,1.0,89,-99.99,,,-99.99,,2013-01-25 02:21:00,
2013-01-24 19:32:00,35.0,32.0,-100.00,North,0,0.0,1.0,89,-99.99,,,-99.99,,2013-01-25 02:32:00,
2013-01-24 19:42:00,35.0,32.0,-100.00,North,0,0.0,1.0,89,-99.99,,,-99.99,,2013-01-25 02:42:00,
2013-01-24 19:52:00,35.0,32.0,-100.00,South,176,1.0,1.0,89,-99.99,,,-99.99,,2013-01-25 02:52:00,
2013-01-24 20:02:00,35.0,32.0,-100.00,South,176,0.0,1.0,90,-99.99,,,-99.99,,2013-01-25 03:02:00,
2013-01-24 20:12:00,35.0,32.0,-100.00,ENE,57,1.0,4.0,90,-99.99,,,-99.99,,2013-01-25 03:12:00,
2013-01-24 20:21:00,35.0,32.0,-100.00,ENE,57,1.0,4.0,90,-99.99,,,-99.99,,2013-01-25 03:21:00,
2013-01-24 20:32:00,35.0,32.0,-100.00,East,90,4.0,4.0,91,-99.99,,,-99.99,,2013-01-25 03:32:00,
2013-01-24 20:41:00,35.0,32.0,-100.00,East,86,1.0,3.0,91,-99.99,,,-99.99,,2013-01-25 03:41:00,
2013-01-24 20:52:00,35.0,32.0,-100.00,ESE,121,2.0,3.0,91,-99.99,,,-99.99,,2013-01-25 03:52:00,
2013-01-24 21:02:00,35.0,32.0,-100.00,North,0,0.0,0.0,91,-99.99,,,-99.99,,2013-01-25 04:02:00,
2013-01-24 21:11:00,34.0,32.0,-100.00,ESE,105,1.0,2.0,91,-99.99,,,-99.99,,2013-01-25 04:11:00,
2013-01-24 21:22:00,34.0,32.0,-100.00,ESE,105,1.0,2.0,91,-99.99,,,-99.99,,2013-01-25 04:22:00,
2013-01-24 21:31:00,34.0,32.0,-100.00,NNW,339,1.0,3.0,92,-99.99,,,-99.99,,2013-01-25 04:31:00,
2013-01-24 21:41:00,34.0,32.0,-100.00,WSW,253,3.0,4.0,92,-99.99,,,-99.99,,2013-01-25 04:41:00,
2013-01-24 21:51:00,34.0,32.0,-100.00,WSW,253,3.0,4.0,92,-99.99,,,-99.99,,2013-01-25 04:51:00,
2013-01-24 22:03:00,34.0,32.0,-100.00,West,272,3.0,4.0,92,-99.99,,,-99.99,,2013-01-25 05:03:00,
2013-01-24 22:12:00,34.0,32.0,-100.00,West,279,0.0,4.0,93,-99.99,,,-99.99,,2013-01-25 05:12:00,
2013-01-24 22:22:00,34.0,32.0,-100.00,West,279,0.0,4.0,93,-99.99,,,-99.99,,2013-01-25 05:22:00,
2013-01-24 22:30:00,34.0,32.0,-100.00,WSW,243,2.0,2.0,93,-99.99,,,-99.99,,2013-01-25 05:30:00,
2013-01-24 22:32:00,34.0,32.0,-100.00,North,0,0.0,2.0,92,-99.99,,,-99.99,,2013-01-25 05:32:00,
2013-01-24 22:42:00,34.0,32.0,-100.00,West,278,0.0,2.0,93,-99.99,,,-99.99,,2013-01-25 05:42:00,
2013-01-24 22:51:00,34.0,32.0,-100.00,WSW,243,2.0,2.0,93,-99.99,,,-99.99,,2013-01-25 05:51:00,
2013-01-24 23:02:00,34.0,32.0,-100.00,WSW,243,2.0,2.0,93,-99.99,,,-99.99,,2013-01-25 06:02:00,
2013-01-24 23:11:00,34.0,32.0,-100.00,WSW,243,2.0,2.0,93,-99.99,,,-99.99,,2013-01-25 06:11:00,
2013-01-24 23:21:00,34.0,32.0,-100.00,WSW,243,2.0,2.0,93,-99.99,,,-99.99,,2013-01-25 06:21:00,